Lijing, China
Current Conditions -  °F | °C
As of 4:00 AM on Tuesday 25 Nov 2014 (Local Time) from ZPPP Reporting Station
Clear Clear  
Wind Chill: 43°   Ceiling: Unl
Heat Index: 43°   Visibility: 6mi
Dew Point: 41°   Wind: 0mph
Humidity: 93%   Direction: NA
Pressure: 30.12"   Gusts: NA
Location:  26.83°N, 100.47°E
Report Text: ZPPP 242000Z 00000MPS CAVOK 06/05 Q1020 NOSIG
Loading
Personal Weather Stations






























Interactive Weather Map New forecast layout! Learn more

10-Day Weather Forecast

Advertisements
Track Severe Weather on mobile